createdAt,value
2022-11-01T00:01:31.428Z,94326.41
2022-11-01T00:16:33.249Z,94317.97
2022-11-01T00:31:34.758Z,94318.25
2022-11-01T00:46:36.242Z,94319.66
2022-11-01T01:01:37.769Z,94327.66
2022-11-01T01:16:39.444Z,94316.13
2022-11-01T01:31:40.988Z,94323.91
2022-11-01T01:46:42.460Z,94325.75
2022-11-01T02:01:44.001Z,94332.28
2022-11-01T02:17:07.090Z,94336.00
2022-11-01T02:32:22.641Z,94334.88
2022-11-01T02:47:25.192Z,94353.78
2022-11-01T03:02:40.703Z,94364.72
2022-11-01T03:17:49.365Z,94365.34
2022-11-01T03:32:53.715Z,94363.22
2022-11-01T03:47:55.204Z,94370.25
2022-11-01T04:02:57.529Z,94367.50
2022-11-01T04:18:23.785Z,94359.44
2022-11-01T04:33:25.219Z,94374.41
2022-11-01T04:48:27.724Z,94367.78
2022-11-01T05:03:29.202Z,94374.03
2022-11-01T05:18:30.702Z,94387.09
2022-11-01T05:33:32.146Z,94406.47
2022-11-01T05:48:33.956Z,94412.16
2022-11-01T06:03:36.269Z,94406.41
2022-11-01T06:18:37.771Z,94413.78
2022-11-01T06:33:39.451Z,94424.59
2022-11-01T06:48:40.914Z,94435.50
2022-11-01T07:03:42.378Z,94422.88
2022-11-01T07:18:44.805Z,94421.44
2022-11-01T07:33:46.327Z,94429.44
2022-11-01T07:48:47.851Z,94428.06
2022-11-01T08:03:49.445Z,94421.13
2022-11-01T08:18:50.997Z,94421.06
2022-11-01T08:33:52.445Z,94404.47
2022-11-01T08:48:59.225Z,94396.19
2022-11-01T09:04:01.362Z,94398.03
2022-11-01T09:19:03.502Z,94381.06
2022-11-01T09:34:06.156Z,94369.78
2022-11-01T09:49:07.946Z,94354.06
2022-11-01T10:04:22.805Z,94347.44
2022-11-01T10:19:26.284Z,94335.19
2022-11-01T10:34:29.784Z,94316.34
2022-11-01T10:50:04.249Z,94308.94
2022-11-01T11:05:06.988Z,94287.75
2022-11-01T11:20:10.713Z,94288.16
2022-11-01T11:35:21.561Z,94273.16
2022-11-01T11:50:25.025Z,94267.75
2022-11-01T12:05:28.802Z,94258.88
2022-11-01T12:20:35.806Z,94243.94
2022-11-01T12:35:41.248Z,94225.31
2022-11-01T12:51:03.043Z,94224.97
2022-11-01T13:06:18.936Z,94223.69
2022-11-01T13:21:20.353Z,94218.75
2022-11-01T13:36:30.229Z,94215.13
2022-11-01T13:51:39.033Z,94214.31
2022-11-01T14:06:41.961Z,94205.47
2022-11-01T14:21:47.966Z,94196.00
2022-11-01T14:36:51.943Z,94192.56
2022-11-01T14:52:16.281Z,94198.28
2022-11-01T15:07:19.923Z,94202.22
2022-11-01T15:22:24.970Z,94197.53
2022-11-01T15:37:32.677Z,94200.19
2022-11-01T15:52:34.743Z,94211.75
2022-11-01T16:07:36.287Z,94222.41
2022-11-01T16:22:45.606Z,94224.53
2022-11-01T16:37:47.069Z,94239.81
2022-11-01T16:52:48.762Z,94226.81
2022-11-01T17:07:50.234Z,94240.16
2022-11-01T17:22:53.544Z,94246.22
2022-11-01T17:37:55.447Z,94247.22
2022-11-01T17:52:56.914Z,94249.47
2022-11-01T18:07:59.888Z,94248.03
2022-11-01T18:23:03.372Z,94246.97
2022-11-01T18:38:07.652Z,94251.00
2022-11-01T18:53:09.109Z,94264.19
2022-11-01T19:08:24.943Z,94283.94
2022-11-01T19:23:30.851Z,94283.94
2022-11-01T19:38:32.410Z,94287.28
2022-11-01T19:53:37.234Z,94290.22
2022-11-01T20:08:40.532Z,94219.41
2022-11-01T20:23:41.981Z,94304.63
2022-11-01T20:38:43.483Z,94299.94
2022-11-01T20:53:44.952Z,94299.09
2022-11-01T21:08:47.302Z,94306.63
2022-11-01T21:23:49.050Z,94300.47
2022-11-01T21:38:50.496Z,94301.88
2022-11-01T21:53:52.019Z,94285.19
2022-11-01T22:16:08.594Z,94288.94
2022-11-01T22:31:10.392Z,94278.91
2022-11-01T22:46:23.713Z,94283.09
2022-11-01T23:01:30.545Z,94276.78
2022-11-01T23:16:36.280Z,94261.81
2022-11-01T23:31:37.736Z,94265.34
2022-11-01T23:46:39.227Z,94269.81
